createdAt,value
2018-07-30T00:00:24.840Z,70.53
2018-07-30T00:01:24.841Z,70.53
2018-07-30T00:02:24.807Z,70.32
2018-07-30T00:03:24.794Z,70.32
2018-07-30T00:04:24.802Z,70.03
2018-07-30T00:05:24.785Z,70.03
2018-07-30T00:06:24.814Z,70.32
2018-07-30T00:07:24.753Z,70.23
2018-07-30T00:08:24.746Z,70.26
2018-07-30T00:09:24.729Z,71.36
2018-07-30T00:10:24.722Z,71.16
2018-07-30T00:11:24.731Z,70.36
2018-07-30T00:12:24.724Z,71.16
2018-07-30T00:13:24.700Z,71.16
2018-07-30T00:14:24.674Z,71.77
2018-07-30T00:15:24.671Z,71.06
2018-07-30T00:16:24.677Z,71.56
2018-07-30T00:17:24.655Z,71.26
2018-07-30T00:18:24.646Z,71.16
2018-07-30T00:19:24.620Z,71.70
2018-07-30T00:20:24.611Z,71.56
2018-07-30T00:21:24.659Z,71.60
2018-07-30T00:22:24.592Z,71.77
2018-07-30T00:23:24.602Z,71.50
2018-07-30T00:24:24.581Z,70.06
2018-07-30T00:25:24.554Z,71.47
2018-07-30T00:26:24.567Z,71.06
2018-07-30T00:27:24.584Z,71.26
2018-07-30T00:28:24.522Z,71.56
2018-07-30T00:29:24.512Z,71.16
2018-07-30T00:30:24.608Z,70.76
2018-07-30T00:31:24.544Z,70.36
2018-07-30T00:32:25.265Z,71.09
2018-07-30T00:33:24.786Z,71.30
2018-07-30T00:34:24.455Z,70.70
2018-07-30T00:35:24.445Z,71.50
2018-07-30T00:36:24.458Z,71.16
2018-07-30T00:37:24.489Z,71.50
2018-07-30T00:38:24.412Z,71.60
2018-07-30T00:39:24.398Z,71.60
2018-07-30T00:40:24.449Z,72.10
2018-07-30T00:41:24.414Z,72.40
2018-07-30T00:42:24.370Z,71.90
2018-07-30T00:43:24.353Z,72.50
2018-07-30T00:44:24.343Z,73.21
2018-07-30T00:45:24.364Z,73.00
2018-07-30T00:46:24.355Z,72.60
2018-07-30T00:47:24.309Z,72.94
2018-07-30T00:48:24.305Z,73.71
2018-07-30T00:49:24.288Z,73.41
2018-07-30T00:50:24.304Z,73.04
2018-07-30T00:51:24.313Z,72.94
2018-07-30T00:52:24.260Z,73.74
2018-07-30T00:53:24.253Z,73.84
2018-07-30T00:54:24.267Z,73.64
2018-07-30T00:55:24.237Z,73.54
2018-07-30T00:56:24.241Z,73.64
2018-07-30T00:57:24.252Z,73.81
2018-07-30T00:58:24.189Z,74.24
2018-07-30T00:59:24.180Z,74.04
2018-07-30T01:00:24.254Z,73.84
2018-07-30T01:01:24.181Z,73.64
2018-07-30T01:02:24.149Z,73.74
2018-07-30T01:03:24.160Z,73.74
2018-07-30T01:04:24.122Z,73.84
2018-07-30T01:05:24.183Z,73.64
2018-07-30T01:06:24.127Z,73.94
2018-07-30T01:07:24.091Z,74.95
2018-07-30T01:08:24.095Z,74.95
2018-07-30T01:09:24.067Z,74.35
2018-07-30T01:10:24.057Z,74.74
2018-07-30T01:11:24.099Z,74.44
2018-07-30T01:12:24.038Z,74.65
2018-07-30T01:13:24.038Z,74.65
2018-07-30T01:14:24.079Z,74.58
2018-07-30T01:15:24.005Z,74.88
2018-07-30T01:16:24.016Z,75.29
2018-07-30T01:17:23.982Z,75.15
2018-07-30T01:18:24.019Z,74.98
2018-07-30T01:19:23.958Z,75.99
2018-07-30T01:20:23.947Z,75.49
2018-07-30T01:21:23.958Z,74.78
2018-07-30T01:22:23.953Z,75.38
2018-07-30T01:23:23.917Z,75.68
2018-07-30T01:24:23.925Z,74.38
2018-07-30T01:25:23.891Z,75.29
2018-07-30T01:26:23.917Z,74.38
2018-07-30T01:27:23.869Z,74.28
2018-07-30T01:28:23.858Z,74.58
2018-07-30T01:29:23.848Z,74.18
2018-07-30T01:30:23.854Z,74.28
2018-07-30T01:31:23.880Z,73.98
2018-07-30T01:32:23.816Z,74.08
2018-07-30T01:33:23.802Z,73.47
2018-07-30T01:34:23.795Z,72.77
2018-07-30T01:35:23.780Z,73.47
2018-07-30T01:36:23.814Z,72.57
2018-07-30T01:37:23.873Z,72.53
2018-07-30T01:38:23.765Z,73.47
2018-07-30T01:39:23.741Z,73.27
2018-07-30T01:40:23.726Z,73.68
2018-07-30T01:41:23.792Z,73.68
2018-07-30T01:42:23.711Z,73.58
2018-07-30T01:43:23.716Z,73.47
2018-07-30T01:44:23.686Z,73.47
2018-07-30T01:45:23.677Z,73.47
2018-07-30T01:46:23.710Z,73.88
2018-07-30T01:47:23.669Z,73.64
2018-07-30T01:48:23.649Z,74.18
2018-07-30T01:49:23.665Z,73.94
2018-07-30T01:50:23.617Z,74.28
2018-07-30T01:51:23.637Z,74.28
2018-07-30T01:52:23.593Z,74.08
2018-07-30T01:53:23.588Z,74.58
2018-07-30T01:54:23.575Z,74.58
2018-07-30T01:55:23.671Z,74.58
2018-07-30T01:56:23.577Z,74.48
2018-07-30T01:57:23.538Z,74.58
2018-07-30T01:58:23.528Z,74.38
2018-07-30T01:59:23.541Z,75.38
2018-07-30T02:00:23.506Z,75.38
2018-07-30T02:01:23.524Z,74.48
2018-07-30T02:02:23.493Z,74.78
2018-07-30T02:03:23.490Z,75.09
2018-07-30T02:04:23.469Z,74.78
2018-07-30T02:05:23.472Z,74.48
2018-07-30T02:06:23.493Z,74.48
2018-07-30T02:07:23.427Z,74.68
2018-07-30T02:08:23.488Z,74.58
2018-07-30T02:09:23.405Z,75.18
2018-07-30T02:10:23.416Z,74.68
2018-07-30T02:11:23.428Z,75.09
2018-07-30T02:12:23.389Z,74.18
2018-07-30T02:13:23.373Z,74.78
2018-07-30T02:14:23.381Z,74.28
2018-07-30T02:15:23.340Z,74.38
2018-07-30T02:16:23.409Z,75.38
2018-07-30T02:17:23.325Z,74.38
2018-07-30T02:18:23.307Z,75.09
2018-07-30T02:19:23.386Z,74.58
2018-07-30T02:20:23.287Z,75.49
2018-07-30T02:21:23.346Z,75.38
2018-07-30T02:22:23.286Z,75.49
2018-07-30T02:23:23.249Z,75.59
2018-07-30T02:24:23.239Z,75.79
2018-07-30T02:25:23.282Z,75.38
2018-07-30T02:26:23.242Z,76.39
2018-07-30T02:27:23.210Z,76.49
2018-07-30T02:28:23.220Z,75.59
2018-07-30T02:29:23.182Z,76.23
2018-07-30T02:30:23.172Z,76.12
2018-07-30T02:31:23.226Z,76.39
2018-07-30T02:32:23.149Z,75.99
2018-07-30T02:33:23.137Z,76.63
2018-07-30T02:34:23.140Z,76.63
2018-07-30T02:35:23.163Z,76.53
2018-07-30T02:36:23.263Z,76.23
2018-07-30T02:37:23.095Z,76.83
2018-07-30T02:38:23.309Z,76.43
2018-07-30T02:39:23.079Z,76.73
2018-07-30T02:40:23.064Z,76.73
2018-07-30T02:41:23.105Z,76.53
2018-07-30T02:42:23.061Z,76.53
2018-07-30T02:43:23.029Z,77.13
2018-07-30T02:44:23.037Z,76.73
2018-07-30T02:45:23.050Z,76.73
2018-07-30T02:46:23.025Z,76.23
2018-07-30T02:47:22.985Z,76.69
2018-07-30T02:48:23.023Z,75.32
2018-07-30T02:49:23.107Z,76.23
2018-07-30T02:50:22.951Z,76.53
2018-07-30T02:51:22.998Z,76.12
2018-07-30T02:52:22.926Z,76.43
2018-07-30T02:53:22.921Z,76.23
2018-07-30T02:54:22.949Z,75.82
2018-07-30T02:55:22.899Z,75.62
2018-07-30T02:56:22.910Z,76.53
2018-07-30T02:57:22.912Z,76.03
2018-07-30T02:58:22.871Z,76.53
2018-07-30T02:59:22.856Z,75.72
2018-07-30T03:00:22.877Z,75.82
2018-07-30T03:01:22.854Z,75.72
2018-07-30T03:02:22.819Z,76.43
2018-07-30T03:03:22.845Z,76.12
2018-07-30T03:04:22.804Z,76.03
2018-07-30T03:05:22.819Z,76.67
2018-07-30T03:06:22.816Z,76.23
2018-07-30T03:07:22.766Z,76.67
2018-07-30T03:08:22.800Z,76.53
2018-07-30T03:09:22.747Z,76.26
2018-07-30T03:10:22.737Z,76.56
2018-07-30T03:11:22.773Z,77.07
2018-07-30T03:12:22.710Z,77.27
2018-07-30T03:13:22.702Z,77.57
2018-07-30T03:14:22.686Z,77.27
2018-07-30T03:15:22.675Z,76.76
2018-07-30T03:16:22.717Z,77.97
2018-07-30T03:17:22.652Z,76.76
2018-07-30T03:18:22.649Z,77.47
2018-07-30T03:19:22.633Z,77.81
2018-07-30T03:20:22.622Z,77.50
2018-07-30T03:21:22.662Z,78.41
2018-07-30T03:22:22.628Z,77.91
2018-07-30T03:23:22.592Z,78.71
2018-07-30T03:24:22.577Z,78.21
2018-07-30T03:25:22.563Z,78.01
2018-07-30T03:26:22.578Z,78.41
2018-07-30T03:27:22.596Z,78.91
2018-07-30T03:28:22.998Z,79.42
2018-07-30T03:29:22.520Z,79.76
2018-07-30T03:30:22.518Z,79.11
2018-07-30T03:31:22.583Z,79.42
2018-07-30T03:32:22.492Z,79.66
2018-07-30T03:33:22.477Z,79.56
2018-07-30T03:34:22.518Z,79.16
2018-07-30T03:35:22.459Z,79.82
2018-07-30T03:36:22.473Z,79.36
2018-07-30T03:37:22.448Z,80.97
2018-07-30T03:38:22.428Z,80.66
2018-07-30T03:39:22.455Z,79.25
2018-07-30T03:40:22.414Z,80.26
2018-07-30T03:41:22.424Z,79.16
2018-07-30T03:42:22.481Z,80.97
2018-07-30T03:43:22.411Z,80.57
2018-07-30T03:44:22.371Z,81.17
2018-07-30T03:45:22.376Z,80.77
2018-07-30T03:46:22.399Z,81.17
2018-07-30T03:47:22.330Z,80.97
2018-07-30T03:48:22.319Z,81.17
2018-07-30T03:49:22.308Z,81.17
2018-07-30T03:50:22.295Z,80.66
2018-07-30T03:51:22.313Z,81.17
2018-07-30T03:52:22.304Z,80.97
2018-07-30T03:53:22.277Z,80.66
2018-07-30T03:54:22.281Z,80.57
2018-07-30T03:55:22.249Z,80.16
2018-07-30T03:56:22.306Z,80.06
2018-07-30T03:57:22.299Z,79.46
2018-07-30T03:58:22.214Z,79.72
2018-07-30T03:59:22.198Z,79.46
2018-07-30T04:00:22.311Z,79.25
2018-07-30T04:01:22.212Z,79.52
2018-07-30T04:02:22.170Z,79.86
2018-07-30T04:03:22.178Z,79.05
2018-07-30T04:04:22.144Z,79.25
2018-07-30T04:05:22.134Z,79.56
2018-07-30T04:06:22.164Z,78.96
2018-07-30T04:07:22.119Z,79.66
2018-07-30T04:08:22.399Z,79.05
2018-07-30T04:09:22.099Z,79.25
2018-07-30T04:10:22.081Z,79.76
2018-07-30T04:11:22.096Z,79.36
2018-07-30T04:12:22.101Z,79.16
2018-07-30T04:13:22.046Z,79.96
2018-07-30T04:14:22.040Z,79.05
2018-07-30T04:15:22.056Z,79.96
2018-07-30T04:16:22.041Z,79.62
2018-07-30T04:17:22.027Z,79.92
2018-07-30T04:18:22.713Z,79.72
2018-07-30T04:19:22.006Z,79.62
2018-07-30T04:20:21.971Z,80.02
2018-07-30T04:21:21.998Z,79.42
2018-07-30T04:22:21.950Z,79.46
2018-07-30T04:23:21.944Z,80.02
2018-07-30T04:24:21.928Z,79.72
2018-07-30T04:25:21.918Z,79.92
2018-07-30T04:26:21.981Z,79.46
2018-07-30T04:27:21.899Z,80.12
2018-07-30T04:28:21.887Z,79.52
2018-07-30T04:29:21.907Z,79.62
2018-07-30T04:30:21.896Z,79.96
2018-07-30T04:31:21.883Z,79.62
2018-07-30T04:32:21.841Z,79.52
2018-07-30T04:33:21.832Z,79.02
2018-07-30T04:34:21.835Z,79.82
2018-07-30T04:35:22.458Z,79.58
2018-07-30T04:36:21.855Z,78.81
2018-07-30T04:37:21.786Z,79.58
2018-07-30T04:38:21.778Z,78.88
2018-07-30T04:39:21.805Z,79.28
2018-07-30T04:40:21.776Z,79.04
2018-07-30T04:41:21.772Z,78.44
2018-07-30T04:42:21.748Z,78.14
2018-07-30T04:43:21.731Z,77.83
2018-07-30T04:44:21.776Z,78.64
2018-07-30T04:45:21.732Z,78.23
2018-07-30T04:46:21.749Z,77.43
2018-07-30T04:47:21.744Z,77.83
2018-07-30T04:48:21.664Z,77.94
2018-07-30T04:49:21.690Z,77.33
2018-07-30T04:50:21.697Z,77.43
2018-07-30T04:51:21.686Z,77.63
2018-07-30T04:52:21.621Z,76.63
2018-07-30T04:53:21.608Z,76.89
2018-07-30T04:54:21.602Z,76.49
2018-07-30T04:55:21.586Z,76.69
2018-07-30T04:56:21.617Z,75.79
2018-07-30T04:57:21.562Z,75.85
2018-07-30T04:58:21.555Z,75.79
2018-07-30T04:59:21.549Z,76.15
2018-07-30T05:00:21.531Z,75.85
2018-07-30T05:01:21.547Z,76.05
2018-07-30T05:02:21.599Z,76.05
2018-07-30T05:03:21.518Z,75.95
2018-07-30T05:04:21.497Z,75.65
2018-07-30T05:05:21.481Z,75.95
2018-07-30T05:06:21.541Z,75.95
2018-07-30T05:07:21.454Z,75.75
2018-07-30T05:08:21.445Z,75.95
2018-07-30T05:09:21.445Z,75.65
2018-07-30T05:10:21.433Z,75.95
2018-07-30T05:11:21.500Z,75.95
2018-07-30T05:12:21.404Z,74.95
2018-07-30T05:13:21.394Z,75.85
2018-07-30T05:14:21.378Z,75.35
2018-07-30T05:15:21.402Z,74.65
2018-07-30T05:16:21.390Z,75.01
2018-07-30T05:17:21.346Z,74.24
2018-07-30T05:18:21.337Z,74.21
2018-07-30T05:19:21.394Z,74.71
2018-07-30T05:20:21.313Z,73.91
2018-07-30T05:21:21.339Z,73.41
2018-07-30T05:22:21.291Z,74.01
2018-07-30T05:23:21.278Z,73.50
2018-07-30T05:24:21.278Z,73.50
2018-07-30T05:25:21.257Z,72.60
2018-07-30T05:26:21.273Z,73.57
2018-07-30T05:27:21.259Z,73.37
2018-07-30T05:28:21.222Z,73.67
2018-07-30T05:29:21.213Z,73.47
2018-07-30T05:30:21.200Z,73.37
2018-07-30T05:31:21.220Z,72.74
2018-07-30T05:32:21.178Z,73.24
2018-07-30T05:33:21.191Z,72.24
2018-07-30T05:34:21.156Z,71.73
2018-07-30T05:35:21.161Z,71.50
2018-07-30T05:36:21.185Z,72.00
2018-07-30T05:37:21.174Z,71.80
2018-07-30T05:38:21.113Z,71.39
2018-07-30T05:39:21.134Z,71.00
2018-07-30T05:40:21.092Z,70.89
2018-07-30T05:41:21.108Z,71.56
2018-07-30T05:42:21.069Z,71.36
2018-07-30T05:43:21.063Z,71.26
2018-07-30T05:44:21.059Z,71.03
2018-07-30T05:45:21.063Z,70.23
2018-07-30T05:46:21.132Z,70.93
2018-07-30T05:47:21.055Z,70.12
2018-07-30T05:48:21.008Z,69.99
2018-07-30T05:49:21.046Z,69.29
2018-07-30T05:50:21.000Z,69.89
2018-07-30T05:51:21.001Z,69.99
2018-07-30T05:52:20.964Z,69.29
2018-07-30T05:53:20.990Z,69.89
2018-07-30T05:54:20.953Z,69.89
2018-07-30T05:55:20.931Z,70.09
2018-07-30T05:56:20.922Z,69.89
2018-07-30T05:57:20.934Z,69.39
2018-07-30T05:58:20.926Z,69.29
2018-07-30T05:59:20.945Z,69.49
2018-07-30T06:00:20.877Z,69.39
2018-07-30T06:01:20.864Z,68.46
2018-07-30T06:02:20.919Z,67.96
2018-07-30T06:03:20.842Z,67.72
2018-07-30T06:04:20.861Z,66.42
2018-07-30T06:05:20.885Z,66.52
2018-07-30T06:06:20.816Z,66.19
2018-07-30T06:07:20.852Z,65.99
2018-07-30T06:08:20.789Z,65.56
2018-07-30T06:09:20.779Z,65.06
2018-07-30T06:10:20.782Z,64.93
2018-07-30T06:11:20.758Z,64.53
2018-07-30T06:12:20.777Z,64.00
2018-07-30T06:13:20.759Z,64.30
2018-07-30T06:14:20.754Z,63.67
2018-07-30T06:15:20.720Z,63.47
2018-07-30T06:16:20.757Z,63.97
2018-07-30T06:17:20.693Z,62.64
2018-07-30T06:18:20.718Z,60.85
2018-07-30T06:19:20.672Z,61.61
2018-07-30T06:20:20.668Z,62.31
2018-07-30T06:21:20.648Z,61.32
2018-07-30T06:22:20.646Z,61.61
2018-07-30T06:23:20.690Z,60.22
2018-07-30T06:24:20.616Z,60.09
2018-07-30T06:25:20.621Z,60.49
2018-07-30T06:26:20.622Z,59.49
2018-07-30T06:27:20.619Z,60.49
2018-07-30T06:28:20.645Z,60.49
2018-07-30T06:29:20.615Z,60.42
2018-07-30T06:30:20.550Z,60.62
2018-07-30T06:31:20.544Z,60.79
2018-07-30T06:32:20.530Z,59.79
2018-07-30T06:33:20.545Z,60.19
2018-07-30T06:34:20.506Z,60.59
2018-07-30T06:35:20.511Z,60.29
2018-07-30T06:36:20.534Z,59.59
2018-07-30T06:37:20.485Z,60.09
2018-07-30T06:38:20.535Z,59.99
2018-07-30T06:39:20.459Z,59.47
2018-07-30T06:40:20.450Z,58.97
2018-07-30T06:41:20.602Z,58.14
2018-07-30T06:42:20.420Z,58.14
2018-07-30T06:43:20.446Z,58.61
2018-07-30T06:44:20.423Z,58.51
2018-07-30T06:45:20.397Z,58.58
2018-07-30T06:46:20.391Z,58.18
2018-07-30T06:47:20.368Z,57.82
2018-07-30T06:48:20.401Z,57.92
2018-07-30T06:49:20.347Z,57.22
2018-07-30T06:50:20.337Z,57.32
2018-07-30T06:51:20.406Z,58.01
2018-07-30T06:52:20.393Z,57.42
2018-07-30T06:53:20.433Z,57.02
2018-07-30T06:54:20.322Z,57.71
2018-07-30T06:55:20.286Z,57.09
2018-07-30T06:56:20.291Z,57.49
2018-07-30T06:57:20.260Z,57.29
2018-07-30T06:58:20.310Z,56.47
2018-07-30T06:59:20.257Z,58.16
2018-07-30T07:00:20.231Z,55.67
2018-07-30T07:01:20.216Z,55.65
2018-07-30T07:02:20.207Z,55.82
2018-07-30T07:03:20.289Z,55.82
2018-07-30T07:04:20.220Z,55.72
2018-07-30T07:05:20.175Z,54.21
2018-07-30T07:06:20.167Z,54.40
2018-07-30T07:07:20.154Z,54.45
2018-07-30T07:08:20.198Z,52.37
2018-07-30T07:09:20.138Z,51.97
2018-07-30T07:10:20.133Z,52.26
2018-07-30T07:11:20.137Z,52.69
2018-07-30T07:12:20.103Z,52.19
2018-07-30T07:13:20.117Z,53.85
2018-07-30T07:14:20.092Z,52.69
2018-07-30T07:15:20.071Z,53.85
2018-07-30T07:16:20.058Z,54.15
2018-07-30T07:17:20.071Z,53.26
2018-07-30T07:18:20.066Z,53.38
2018-07-30T07:19:20.024Z,52.66
2018-07-30T07:20:20.014Z,54.25
2018-07-30T07:21:20.116Z,53.92
2018-07-30T07:22:20.002Z,52.31
2018-07-30T07:23:20.030Z,52.41
2018-07-30T07:24:19.972Z,52.44
2018-07-30T07:25:19.965Z,52.47
2018-07-30T07:26:19.960Z,54.05
2018-07-30T07:27:19.950Z,53.36
2018-07-30T07:28:19.978Z,53.75
2018-07-30T07:29:19.931Z,53.85
2018-07-30T07:30:19.911Z,52.73
2018-07-30T07:31:20.271Z,51.52
2018-07-30T07:32:19.892Z,51.23
2018-07-30T07:33:19.934Z,51.99
2018-07-30T07:34:19.932Z,51.89
2018-07-30T07:35:19.854Z,51.50
2018-07-30T07:36:19.851Z,51.60
2018-07-30T07:37:20.894Z,50.68
2018-07-30T07:38:20.178Z,52.24
2018-07-30T07:39:19.842Z,52.04
2018-07-30T07:40:19.809Z,50.76
2018-07-30T07:41:19.799Z,50.34
2018-07-30T07:42:19.793Z,50.13
2018-07-30T07:43:19.803Z,49.32
2018-07-30T07:44:19.774Z,49.89
2018-07-30T07:45:19.766Z,49.82
2018-07-30T07:46:19.759Z,50.21
2018-07-30T07:47:19.738Z,49.52
2018-07-30T07:48:19.816Z,51.79
2018-07-30T07:49:19.720Z,49.35
2018-07-30T07:50:19.919Z,50.21
2018-07-30T07:51:19.686Z,50.73
2018-07-30T07:52:19.680Z,49.57
2018-07-30T07:53:19.737Z,50.48
2018-07-30T07:54:19.676Z,50.46
2018-07-30T07:55:19.642Z,49.74
2018-07-30T07:56:19.679Z,50.12
2018-07-30T07:57:19.621Z,50.09
2018-07-30T07:58:19.617Z,49.10
2018-07-30T07:59:19.630Z,49.18
2018-07-30T08:00:19.591Z,46.51
2018-07-30T08:01:19.586Z,47.85
2018-07-30T08:02:19.593Z,45.57
2018-07-30T08:03:19.556Z,46.94
2018-07-30T08:04:19.632Z,45.53
2018-07-30T08:05:19.535Z,47.31
2018-07-30T08:06:19.583Z,47.31
2018-07-30T08:07:19.536Z,47.94
2018-07-30T08:08:19.514Z,47.43
2018-07-30T08:09:19.522Z,48.12
2018-07-30T08:10:19.486Z,48.00
2018-07-30T08:11:19.482Z,45.95
2018-07-30T08:12:19.549Z,45.65
2018-07-30T08:13:19.488Z,47.55
2018-07-30T08:14:19.466Z,46.26
2018-07-30T08:15:19.445Z,45.65
2018-07-30T08:16:19.493Z,45.97
2018-07-30T08:17:19.440Z,47.75
2018-07-30T08:18:19.407Z,46.15
2018-07-30T08:19:19.449Z,47.23
2018-07-30T08:20:19.495Z,46.34
2018-07-30T08:21:19.383Z,45.46
2018-07-30T08:22:19.471Z,46.74
2018-07-30T08:23:19.492Z,47.43
2018-07-30T08:24:19.375Z,47.01
2018-07-30T08:25:19.394Z,46.99
2018-07-30T08:26:19.317Z,47.16
2018-07-30T08:27:19.310Z,46.37
2018-07-30T08:28:19.302Z,45.56
2018-07-30T08:29:19.346Z,44.19
2018-07-30T08:30:19.320Z,45.56
2018-07-30T08:31:19.288Z,44.88
2018-07-30T08:32:19.256Z,45.52
2018-07-30T08:33:19.253Z,45.70
2018-07-30T08:34:19.299Z,42.65
2018-07-30T08:35:19.226Z,41.67
2018-07-30T08:36:19.225Z,43.32
2018-07-30T08:37:19.207Z,45.26
2018-07-30T08:38:19.195Z,42.51
2018-07-30T08:39:19.293Z,44.67
2018-07-30T08:40:19.181Z,42.71
2018-07-30T08:41:19.163Z,43.00
2018-07-30T08:42:19.215Z,42.92
2018-07-30T08:43:19.147Z,42.25
2018-07-30T08:44:19.181Z,44.71
2018-07-30T08:45:19.118Z,44.12
2018-07-30T08:46:19.117Z,44.71
2018-07-30T08:47:19.100Z,43.41
2018-07-30T08:48:19.092Z,42.92
2018-07-30T08:49:19.103Z,42.51
2018-07-30T08:50:19.097Z,41.53
2018-07-30T08:51:19.083Z,42.29
2018-07-30T08:52:19.048Z,42.39
2018-07-30T08:53:19.044Z,43.05
2018-07-30T08:54:19.050Z,41.98
2018-07-30T08:55:19.026Z,40.80
2018-07-30T08:56:19.061Z,39.82
2018-07-30T08:57:19.032Z,40.11
2018-07-30T08:58:18.990Z,40.19
2018-07-30T08:59:18.996Z,42.35
2018-07-30T09:00:18.972Z,41.45
2018-07-30T09:01:18.956Z,38.98
2018-07-30T09:02:18.944Z,39.17
2018-07-30T09:03:18.965Z,40.35
2018-07-30T09:04:19.031Z,40.06
2018-07-30T09:05:18.910Z,39.07
2018-07-30T09:06:18.926Z,39.09
2018-07-30T09:07:18.908Z,37.92
2018-07-30T09:08:18.880Z,40.37
2018-07-30T09:09:18.915Z,41.15
2018-07-30T09:10:18.860Z,38.80
2018-07-30T09:11:18.859Z,39.51
2018-07-30T09:12:18.845Z,41.08
2018-07-30T09:13:18.886Z,40.58
2018-07-30T09:14:18.967Z,39.51
2018-07-30T09:15:18.844Z,39.90
2018-07-30T09:16:18.798Z,40.29
2018-07-30T09:17:18.828Z,40.47
2018-07-30T09:18:18.876Z,38.60
2018-07-30T09:19:18.803Z,38.41
2018-07-30T09:20:18.767Z,38.90
2018-07-30T09:21:18.918Z,39.49
2018-07-30T09:22:18.739Z,41.45
2018-07-30T09:23:18.899Z,39.56
2018-07-30T09:24:18.744Z,40.17
2018-07-30T09:25:18.741Z,39.56
2018-07-30T09:26:18.716Z,38.49
2018-07-30T09:27:18.686Z,37.71
2018-07-30T09:28:18.687Z,38.39
2018-07-30T09:29:18.703Z,38.02
2018-07-30T09:30:18.656Z,36.55
2018-07-30T09:31:18.649Z,38.02
2018-07-30T09:32:18.767Z,39.09
2018-07-30T09:33:18.721Z,39.00
2018-07-30T09:34:18.639Z,37.92
2018-07-30T09:35:18.600Z,38.62
2018-07-30T09:36:18.635Z,38.35
2018-07-30T09:37:18.651Z,38.25
2018-07-30T09:38:18.655Z,39.25
2018-07-30T09:39:18.668Z,40.53
2018-07-30T09:40:18.549Z,40.13
2018-07-30T09:41:18.578Z,40.03
2018-07-30T09:42:18.555Z,41.51
2018-07-30T09:43:18.519Z,39.06
2018-07-30T09:44:18.580Z,38.96
2018-07-30T09:45:18.496Z,39.15
2018-07-30T09:46:18.509Z,39.64
2018-07-30T09:47:18.483Z,39.06
2018-07-30T09:48:18.495Z,39.94
2018-07-30T09:49:18.488Z,40.13
2018-07-30T09:50:18.456Z,40.92
2018-07-30T09:51:18.496Z,41.51
2018-07-30T09:52:18.584Z,39.84
2018-07-30T09:53:18.681Z,39.86
2018-07-30T09:54:18.437Z,41.14
2018-07-30T09:55:18.394Z,40.94
2018-07-30T09:56:18.500Z,41.53
2018-07-30T09:57:18.379Z,41.24
2018-07-30T09:58:18.399Z,42.32
2018-07-30T09:59:18.384Z,41.33
2018-07-30T10:00:18.367Z,40.16
2018-07-30T10:01:18.515Z,41.14
2018-07-30T10:02:18.323Z,40.96
2018-07-30T10:03:18.325Z,41.06
2018-07-30T10:04:18.361Z,39.88
2018-07-30T10:05:18.496Z,40.47
2018-07-30T10:06:18.567Z,40.17
2018-07-30T10:07:18.279Z,41.45
2018-07-30T10:08:18.285Z,41.55
2018-07-30T10:09:18.303Z,41.35
2018-07-30T10:10:18.261Z,40.96
2018-07-30T10:11:18.412Z,41.06
2018-07-30T10:12:18.242Z,43.32
2018-07-30T10:13:18.221Z,41.35
2018-07-30T10:14:18.287Z,40.94
2018-07-30T10:15:18.189Z,39.86
2018-07-30T10:16:18.210Z,42.21
2018-07-30T10:17:18.168Z,43.10
2018-07-30T10:18:18.225Z,42.92
2018-07-30T10:19:18.193Z,42.21
2018-07-30T10:20:18.186Z,42.24
2018-07-30T10:21:18.121Z,41.55
2018-07-30T10:22:18.125Z,40.94
2018-07-30T10:23:18.105Z,40.45
2018-07-30T10:24:18.134Z,40.16
2018-07-30T10:25:18.095Z,41.14
2018-07-30T10:26:18.701Z,40.03
2018-07-30T10:27:18.064Z,40.25
2018-07-30T10:28:18.052Z,40.45
2018-07-30T10:29:18.122Z,40.06
2018-07-30T10:30:18.030Z,40.08
2018-07-30T10:31:18.059Z,41.03
2018-07-30T10:32:18.027Z,41.21
2018-07-30T10:33:18.034Z,39.74
2018-07-30T10:34:18.013Z,40.13
2018-07-30T10:35:17.984Z,40.31
2018-07-30T10:36:17.978Z,39.53
2018-07-30T10:37:17.986Z,38.74
2018-07-30T10:38:18.147Z,39.01
2018-07-30T10:39:17.988Z,39.69
2018-07-30T10:40:17.979Z,37.82
2018-07-30T10:41:17.930Z,39.07
2018-07-30T10:42:17.904Z,39.06
2018-07-30T10:43:17.914Z,38.18
2018-07-30T10:44:17.907Z,38.47
2018-07-30T10:45:17.884Z,38.96
2018-07-30T10:46:17.905Z,38.18
2018-07-30T10:47:17.852Z,38.18
2018-07-30T10:48:17.932Z,38.68
2018-07-30T10:49:17.859Z,39.07
2018-07-30T10:50:17.821Z,40.53
2018-07-30T10:51:17.824Z,38.59
2018-07-30T10:52:17.804Z,37.90
2018-07-30T10:53:17.790Z,38.76
2018-07-30T10:54:17.852Z,39.06
2018-07-30T10:55:17.803Z,37.90
2018-07-30T10:56:17.773Z,38.47
2018-07-30T10:57:17.791Z,39.94
2018-07-30T10:58:17.817Z,38.35
2018-07-30T10:59:17.761Z,36.79
2018-07-30T11:00:17.744Z,38.45
2018-07-30T11:01:17.742Z,38.94
2018-07-30T11:02:17.711Z,38.75
2018-07-30T11:03:17.725Z,39.33
2018-07-30T11:04:17.699Z,38.45
2018-07-30T11:05:17.695Z,37.77
2018-07-30T11:06:17.659Z,38.06
2018-07-30T11:07:17.650Z,38.35
2018-07-30T11:08:17.660Z,36.59
2018-07-30T11:09:17.652Z,36.59
2018-07-30T11:10:17.620Z,38.16
2018-07-30T11:11:17.613Z,36.79
2018-07-30T11:12:17.593Z,38.22
2018-07-30T11:13:17.583Z,36.73
2018-07-30T11:14:17.606Z,35.72
2018-07-30T11:15:17.605Z,34.39
2018-07-30T11:16:18.044Z,33.29
2018-07-30T11:17:17.560Z,33.46
2018-07-30T11:18:17.543Z,33.48
2018-07-30T11:19:17.562Z,32.67
2018-07-30T11:20:17.516Z,32.92
2018-07-30T11:21:17.518Z,30.73
2018-07-30T11:22:17.496Z,32.17
2018-07-30T11:23:17.486Z,29.91
2018-07-30T11:24:17.499Z,27.36
2018-07-30T11:25:17.499Z,28.02
2018-07-30T11:26:17.459Z,26.55
2018-07-30T11:27:17.470Z,27.42
2018-07-30T11:28:17.546Z,27.60
2018-07-30T11:29:17.480Z,27.86
2018-07-30T11:30:17.426Z,25.45
2018-07-30T11:31:17.414Z,25.74
2018-07-30T11:32:17.412Z,27.75
2018-07-30T11:33:17.643Z,28.59
2018-07-30T11:34:17.418Z,27.06
2018-07-30T11:35:17.378Z,28.31
2018-07-30T11:36:17.377Z,29.71
2018-07-30T11:37:17.365Z,29.53
2018-07-30T11:38:17.420Z,28.76
2018-07-30T11:39:17.376Z,29.88
2018-07-30T11:40:17.333Z,27.72
2018-07-30T11:41:17.327Z,28.43
2018-07-30T11:42:17.317Z,27.56
2018-07-30T11:43:17.313Z,27.73
2018-07-30T11:44:17.409Z,27.49
2018-07-30T11:45:17.288Z,27.75
2018-07-30T11:46:17.287Z,26.67
2018-07-30T11:47:17.277Z,26.68
2018-07-30T11:48:17.303Z,25.69
2018-07-30T11:49:17.430Z,24.65
2018-07-30T11:50:17.250Z,27.51
2018-07-30T11:51:17.259Z,25.52
2018-07-30T11:52:17.349Z,26.29
2018-07-30T11:53:17.239Z,25.24
2018-07-30T11:54:17.314Z,26.16
2018-07-30T11:55:17.220Z,25.17
2018-07-30T11:56:17.201Z,23.92
2018-07-30T11:57:17.962Z,25.35
2018-07-30T11:58:18.409Z,22.84
2018-07-30T11:59:17.512Z,23.24
2018-07-30T12:00:17.486Z,24.91
2018-07-30T12:01:17.365Z,25.44
2018-07-30T12:02:17.226Z,25.97
2018-07-30T12:03:17.176Z,26.81
2018-07-30T12:04:17.141Z,27.01
2018-07-30T12:05:17.339Z,25.81
2018-07-30T12:06:17.200Z,24.05
2018-07-30T12:07:17.177Z,24.40
2018-07-30T12:08:17.216Z,24.13
2018-07-30T12:09:17.141Z,24.33
2018-07-30T12:10:17.251Z,24.05
2018-07-30T12:11:17.129Z,25.21
2018-07-30T12:12:17.090Z,26.48
2018-07-30T12:13:17.164Z,25.35
2018-07-30T12:14:17.093Z,25.52
2018-07-30T12:15:17.078Z,26.07
2018-07-30T12:16:17.063Z,28.15
2018-07-30T12:17:17.041Z,28.26
2018-07-30T12:18:17.048Z,28.89
2018-07-30T12:19:17.025Z,29.11
2018-07-30T12:20:17.049Z,29.98
2018-07-30T12:21:17.001Z,30.29
2018-07-30T12:22:16.993Z,31.58
2018-07-30T12:23:16.981Z,31.21
2018-07-30T12:24:16.969Z,31.61
2018-07-30T12:25:17.004Z,32.70
2018-07-30T12:26:16.965Z,32.60
2018-07-30T12:27:16.941Z,30.55
2018-07-30T12:28:16.995Z,31.63
2018-07-30T12:29:16.924Z,34.08
2018-07-30T12:30:17.177Z,33.78
2018-07-30T12:31:16.919Z,33.67
2018-07-30T12:32:16.892Z,32.10
2018-07-30T12:33:16.884Z,31.70
2018-07-30T12:34:16.990Z,31.27
2018-07-30T12:35:17.011Z,30.11
2018-07-30T12:36:16.975Z,31.07
2018-07-30T12:37:16.901Z,31.31
2018-07-30T12:38:16.836Z,30.11
2018-07-30T12:39:16.880Z,28.00
2018-07-30T12:40:16.848Z,31.79
2018-07-30T12:41:16.894Z,30.94
2018-07-30T12:42:16.817Z,31.84
2018-07-30T12:43:17.851Z,32.07
2018-07-30T12:44:16.826Z,31.70
2018-07-30T12:45:16.895Z,31.61
2018-07-30T12:46:16.758Z,31.71
2018-07-30T12:47:16.753Z,32.79
2018-07-30T12:48:16.831Z,31.93
2018-07-30T12:49:16.731Z,33.02
2018-07-30T12:50:16.743Z,34.19
2018-07-30T12:51:16.753Z,33.33
2018-07-30T12:52:16.734Z,34.59